Time;durP1;ratioP1;P1;durP2;ratioP2;P2;SDS_P1;SDS_P2;PMS_P1;PMS_P2;Temp;Humidity;BMP_temperature;BMP_pressure;BME280_temperature;BME280_humidity;BME280_pressure;Samples;Min_cycle;Max_cycle;Signal;HPM_P1;HPM_P2
2022/06/02 00:02:48;;;;;;;0.75;0.52;;;18.00;57.30;;;;;;6236970;28;20100;-80
2022/06/02 00:06:06;;;;;;;2.30;1.08;;;18.00;57.40;;;;;;6235063;28;20113;-81
2022/06/02 00:09:30;;;;;;;1.20;0.40;;;18.00;57.40;;;;;;6229885;28;20520;-83
2022/06/02 00:12:37;;;;;;;3.15;0.57;;;18.00;57.50;;;;;;6226385;28;20050;-81
2022/06/02 00:15:42;;;;;;;3.58;0.70;;;18.00;57.90;;;;;;6226122;28;20189;-82
2022/06/02 00:18:50;;;;;;;1.20;0.40;;;17.90;58.00;;;;;;6225594;28;20096;-83
2022/06/02 00:21:58;;;;;;;0.95;0.43;;;17.90;58.30;;;;;;6225402;28;20378;-82
2022/06/02 00:25:07;;;;;;;1.45;0.70;;;17.80;58.30;;;;;;6231642;28;20240;-83
2022/06/02 00:28:21;;;;;;;2.35;0.55;;;17.70;58.70;;;;;;6248724;28;20401;-83
2022/06/02 00:31:36;;;;;;;1.35;0.60;;;17.50;59.10;;;;;;6240088;28;20115;-83
2022/06/02 00:34:44;;;;;;;2.80;0.47;;;17.40;59.60;;;;;;6249791;28;20060;-81
2022/06/02 00:37:50;;;;;;;;;;;17.40;60.00;;;;;;6260219;28;20141;-86
2022/06/02 00:40:53;;;;;;;1.58;0.80;;;17.30;60.60;;;;;;6260316;28;19988;-84
2022/06/02 00:44:09;;;;;;;2.17;0.70;;;17.20;60.60;;;;;;6250759;28;20145;-83
2022/06/02 00:47:32;;;;;;;1.88;0.70;;;17.20;61.20;;;;;;6248424;28;20572;-81
2022/06/02 00:50:43;;;;;;;3.83;0.93;;;17.20;62.00;;;;;;6243987;28;20132;-80
2022/06/02 00:57:32;;;;;;;4.25;0.65;;;17.10;61.90;;;;;;6236087;28;20049;-83
2022/06/02 01:00:40;;;;;;;4.13;0.93;;;17.10;62.10;;;;;;6234499;28;20128;-80
2022/06/02 01:03:44;;;;;;;4.82;0.60;;;17.10;61.90;;;;;;6232752;28;20465;-84
2022/06/02 01:07:03;;;;;;;3.53;0.80;;;17.10;62.10;;;;;;6230932;28;20041;-82
2022/06/02 01:10:25;;;;;;;2.80;0.47;;;17.10;62.20;;;;;;6232116;28;20121;-82
2022/06/02 01:13:49;;;;;;;1.77;1.00;;;17.10;62.40;;;;;;6232686;28;20050;-80
2022/06/02 01:17:03;;;;;;;3.47;0.60;;;17.00;62.60;;;;;;6234631;28;20053;-80
2022/06/02 01:20:19;;;;;;;1.67;0.90;;;16.90;62.80;;;;;;6230476;28;20523;-80
2022/06/02 01:23:50;;;;;;;1.38;0.75;;;16.90;63.10;;;;;;6229500;28;20050;-81
2022/06/02 01:27:32;;;;;;;1.08;0.73;;;16.90;63.40;;;;;;6228088;28;20054;-83
2022/06/02 01:30:59;;;;;;;5.32;1.05;;;16.80;63.60;;;;;;6218634;28;20124;-82
2022/06/02 01:34:08;;;;;;;2.63;0.60;;;16.70;64.40;;;;;;6228087;28;20050;-82
2022/06/02 01:37:16;;;;;;;2.70;0.73;;;16.60;64.40;;;;;;6228240;28;20042;-80
2022/06/02 01:40:26;;;;;;;;;;;16.60;64.70;;;;;;6231734;28;20042;-82
2022/06/02 01:43:38;;;;;;;1.67;0.98;;;16.60;65.30;;;;;;6233551;28;19929;-81
2022/06/02 01:46:48;;;;;;;2.33;0.73;;;16.60;65.10;;;;;;6234216;28;20128;-80
2022/06/02 01:50:02;;;;;;;3.67;0.88;;;16.60;65.50;;;;;;6235939;28;20053;-80
2022/06/02 01:53:14;;;;;;;2.85;0.70;;;16.50;65.70;;;;;;6249217;28;20060;-82
2022/06/02 01:56:37;;;;;;;4.40;0.88;;;16.50;66.00;;;;;;6264549;28;20052;-81
2022/06/02 01:59:51;;;;;;;2.30;0.88;;;16.50;66.30;;;;;;6265842;28;20041;-80
2022/06/02 02:03:00;;;;;;;1.23;0.65;;;16.50;66.20;;;;;;6264966;28;20045;-80
2022/06/02 02:06:15;;;;;;;4.93;0.70;;;16.50;67.00;;;;;;6263837;28;20140;-81
2022/06/02 02:09:21;;;;;;;2.65;0.90;;;16.40;67.70;;;;;;6263249;28;20504;-81
2022/06/02 02:12:37;;;;;;;12.43;3.05;;;16.40;68.30;;;;;;6260507;28;20045;-81
2022/06/02 02:15:48;;;;;;;3.88;0.60;;;16.40;68.60;;;;;;6264131;28;20114;-81
2022/06/02 02:19:02;;;;;;;1.52;0.82;;;16.40;69.10;;;;;;6242097;28;20052;-83
2022/06/02 02:22:09;;;;;;;6.07;1.85;;;16.40;69.50;;;;;;6238755;28;20049;-81
2022/06/02 02:25:16;;;;;;;1.35;0.80;;;16.40;69.50;;;;;;6245778;28;20109;-82
2022/06/02 02:28:25;;;;;;;3.03;0.90;;;16.30;69.70;;;;;;6264880;28;20050;-82
2022/06/02 02:31:39;;;;;;;1.45;0.85;;;16.30;70.20;;;;;;6264225;28;20052;-82
2022/06/02 02:34:54;;;;;;;3.05;1.00;;;16.30;70.20;;;;;;6264391;28;20046;-80
2022/06/02 02:38:02;;;;;;;1.20;0.85;;;16.30;70.50;;;;;;6264973;28;20108;-83
2022/06/02 02:41:07;;;;;;;1.63;0.88;;;16.20;70.40;;;;;;6266170;28;20077;-82
2022/06/02 02:44:16;;;;;;;3.42;0.90;;;16.20;70.90;;;;;;6266146;28;20049;-82
2022/06/02 02:47:22;;;;;;;2.13;1.00;;;16.30;70.20;;;;;;6264695;28;20504;-82
2022/06/02 02:50:29;;;;;;;3.33;0.85;;;16.30;70.30;;;;;;6258554;28;20049;-82
2022/06/02 02:53:36;;;;;;;2.88;0.75;;;16.30;70.30;;;;;;6256987;28;20059;-81
2022/06/02 02:56:44;;;;;;;6.70;1.10;;;16.30;70.00;;;;;;6233586;28;20068;-82
2022/06/02 02:59:53;;;;;;;2.75;0.57;;;16.20;70.30;;;;;;6228332;28;20049;-84
2022/06/02 03:03:05;;;;;;;3.58;1.00;;;16.10;70.60;;;;;;6227862;28;20177;-82
2022/06/02 03:06:18;;;;;;;3.33;0.90;;;16.10;71.10;;;;;;6226574;28;20038;-81
2022/06/02 03:09:28;;;;;;;2.17;1.33;;;16.00;71.50;;;;;;6226874;28;20437;-81
2022/06/02 03:12:42;;;;;;;2.70;0.90;;;16.00;71.90;;;;;;6226647;28;20088;-81
2022/06/02 03:15:49;;;;;;;2.00;0.65;;;15.90;72.40;;;;;;6227192;28;20054;-83
2022/06/02 03:19:04;;;;;;;2.33;0.68;;;15.90;72.80;;;;;;6227291;28;20449;-82
2022/06/02 03:22:17;;;;;;;1.83;1.02;;;15.90;73.20;;;;;;6226714;28;20209;-83
2022/06/02 03:25:31;;;;;;;3.75;0.80;;;15.90;73.60;;;;;;6228013;28;20060;-81
2022/06/02 03:28:39;;;;;;;3.85;2.50;;;15.90;73.70;;;;;;6226799;28;20402;-83
2022/06/02 03:31:43;;;;;;;;;;;15.90;74.00;;;;;;6228009;28;20055;-81
2022/06/02 03:34:57;;;;;;;4.47;0.73;;;15.90;74.70;;;;;;6226773;28;19925;-83
2022/06/02 03:38:12;;;;;;;2.83;1.73;;;15.80;74.70;;;;;;6227902;28;20050;-83
2022/06/02 03:41:46;;;;;;;5.38;1.20;;;15.70;75.50;;;;;;6227520;28;20134;-83
2022/06/02 03:44:58;;;;;;;2.47;0.88;;;15.70;76.10;;;;;;6222157;28;20133;-82
2022/06/02 03:48:38;;;;;;;5.45;0.93;;;15.70;76.50;;;;;;6226323;28;20045;-81
2022/06/02 03:51:48;;;;;;;2.05;0.85;;;15.70;76.40;;;;;;6150789;29;20062;-82
2022/06/02 03:55:12;;;;;;;3.15;0.90;;;15.70;76.20;;;;;;6166558;28;20053;-83
2022/06/02 03:58:32;;;;;;;4.90;2.00;;;15.70;76.00;;;;;;6251038;28;20049;-83
2022/06/02 04:01:37;;;;;;;3.05;1.20;;;15.80;76.10;;;;;;6251348;28;20071;-83
2022/06/02 04:04:47;;;;;;;3.72;1.20;;;15.80;75.90;;;;;;6251319;28;20056;-83
2022/06/02 04:08:02;;;;;;;4.13;0.95;;;15.90;75.70;;;;;;6251411;28;20037;-83
2022/06/02 04:11:15;;;;;;;8.48;1.30;;;16.10;75.30;;;;;;6251913;28;20052;-83
2022/06/02 04:14:23;;;;;;;2.67;1.35;;;16.20;74.90;;;;;;6251040;28;20428;-83
2022/06/02 04:17:31;;;;;;;5.55;1.30;;;16.40;74.60;;;;;;6251727;28;20089;-81
2022/06/02 04:20:48;;;;;;;4.93;1.48;;;16.30;74.70;;;;;;6251459;28;20046;-81
2022/06/02 04:24:20;;;;;;;1.75;1.00;;;16.10;75.30;;;;;;6250869;28;20103;-83
2022/06/02 04:27:31;;;;;;;4.90;1.02;;;16.10;75.50;;;;;;6238526;28;20049;-83
2022/06/02 04:30:44;;;;;;;1.33;0.80;;;16.10;75.90;;;;;;6249825;28;20049;-83
2022/06/02 04:33:52;;;;;;;3.08;0.90;;;16.30;75.50;;;;;;6251127;28;20053;-83
2022/06/02 04:37:05;;;;;;;3.03;1.10;;;16.50;75.10;;;;;;6251923;28;20046;-83
2022/06/02 04:40:17;;;;;;;4.25;1.30;;;17.50;73.40;;;;;;6252702;28;20045;-83
2022/06/02 04:43:31;;;;;;;1.77;1.10;;;19.30;67.60;;;;;;6253746;28;20129;-83
2022/06/02 04:46:43;;;;;;;2.95;1.17;;;20.10;63.40;;;;;;6253736;28;20052;-83
2022/06/02 04:49:53;;;;;;;2.05;1.13;;;20.00;62.70;;;;;;6252291;28;20053;-83
2022/06/02 04:53:02;;;;;;;3.90;0.80;;;19.30;64.00;;;;;;6253586;28;20060;-83
2022/06/02 04:56:17;;;;;;;3.30;1.10;;;18.70;65.80;;;;;;6250728;28;20049;-83
2022/06/02 04:59:26;;;;;;;2.80;1.10;;;18.40;67.00;;;;;;6251678;28;20091;-82
2022/06/02 05:02:41;;;;;;;1.95;0.95;;;18.10;68.10;;;;;;6251203;28;20050;-83
2022/06/02 05:05:56;;;;;;;2.13;1.20;;;18.00;68.90;;;;;;6251424;28;20053;-84
2022/06/02 05:09:05;;;;;;;3.72;1.42;;;17.90;70.00;;;;;;6252375;28;20132;-83
2022/06/02 05:12:20;;;;;;;7.13;1.45;;;17.90;69.40;;;;;;6250750;28;20046;-83
2022/06/02 05:15:53;;;;;;;3.60;1.08;;;17.80;69.70;;;;;;6252556;28;20472;-83
2022/06/02 05:19:22;;;;;;;2.25;0.93;;;17.90;69.40;;;;;;6238271;28;20052;-84
2022/06/02 05:22:52;;;;;;;4.32;1.55;;;20.80;63.50;;;;;;6247873;28;20044;-84
2022/06/02 05:26:19;;;;;;;3.92;1.10;;;23.60;53.50;;;;;;6257147;28;20041;-84
2022/06/02 05:30:04;;;;;;;4.03;1.00;;;23.60;51.50;;;;;;6256217;28;20132;-84
2022/06/02 05:33:48;;;;;;;3.30;1.20;;;22.90;52.90;;;;;;6221543;28;20116;-84
2022/06/02 05:37:03;;;;;;;3.45;1.10;;;24.90;49.10;;;;;;6238559;28;20056;-84
2022/06/02 05:40:15;;;;;;;4.03;1.05;;;27.60;44.50;;;;;;6257871;28;20531;-84
2022/06/02 05:43:31;;;;;;;1.77;0.70;;;29.70;39.50;;;;;;6259243;28;20133;-84
2022/06/02 05:46:55;;;;;;;3.67;1.02;;;30.50;36.60;;;;;;6260159;28;20069;-85
2022/06/02 05:50:07;;;;;;;6.13;0.85;;;31.20;35.30;;;;;;6258951;28;20076;-85
2022/06/02 05:53:24;;;;;;;1.83;0.88;;;31.40;34.70;;;;;;6260277;28;20045;-84
2022/06/02 05:56:35;;;;;;;3.50;0.63;;;29.00;37.00;;;;;;6258075;28;20045;-85
2022/06/02 06:00:00;;;;;;;4.45;0.93;;;27.00;39.70;;;;;;6235498;28;20105;-84
2022/06/02 06:03:35;;;;;;;7.20;0.68;;;26.60;40.50;;;;;;6236533;28;20069;-84
2022/06/02 06:06:43;;;;;;;1.05;0.60;;;27.70;38.30;;;;;;6237174;28;20502;-84
2022/06/02 06:09:59;;;;;;;1.17;0.55;;;26.00;39.60;;;;;;6237174;28;20121;-84
2022/06/02 06:13:29;;;;;;;3.33;0.55;;;24.80;42.70;;;;;;6238039;28;20058;-84
2022/06/02 06:16:39;;;;;;;7.50;0.75;;;24.90;42.30;;;;;;6243941;28;20113;-83
2022/06/02 06:20:00;;;;;;;4.30;0.55;;;26.90;39.80;;;;;;6231016;28;20362;-83
2022/06/02 06:23:22;;;;;;;1.73;0.75;;;28.60;37.10;;;;;;6231996;28;20056;-85
2022/06/02 06:26:34;;;;;;;2.13;0.98;;;30.30;35.20;;;;;;6250058;28;20056;-84
2022/06/02 06:29:50;;;;;;;1.42;0.60;;;31.10;34.00;;;;;;6256408;28;20500;-84
2022/06/02 06:33:05;;;;;;;1.48;0.60;;;31.30;33.00;;;;;;6257046;28;20053;-81
2022/06/02 06:36:18;;;;;;;4.63;0.38;;;31.70;32.40;;;;;;6254669;28;20176;-83
2022/06/02 06:39:32;;;;;;;1.70;0.60;;;32.50;32.10;;;;;;6253508;28;20045;-83
2022/06/02 06:42:49;;;;;;;2.85;0.65;;;33.20;30.30;;;;;;6254605;28;20119;-85
2022/06/02 06:46:00;;;;;;;1.90;0.70;;;33.10;30.60;;;;;;6256733;28;20103;-83
2022/06/02 06:49:09;;;;;;;1.13;0.63;;;33.10;30.00;;;;;;6229543;28;20056;-84
2022/06/02 06:52:34;;;;;;;2.92;0.73;;;32.90;30.20;;;;;;6254495;28;20417;-84
2022/06/02 06:55:48;;;;;;;2.15;0.50;;;32.50;30.00;;;;;;6255195;28;20072;-84
2022/06/02 06:59:03;;;;;;;3.45;0.70;;;32.10;30.70;;;;;;6254983;28;20107;-82
2022/06/02 07:02:15;;;;;;;1.17;0.65;;;32.50;30.40;;;;;;6260342;28;20045;-83
2022/06/02 07:05:21;;;;;;;2.10;0.70;;;32.40;30.40;;;;;;6256340;28;20128;-85
2022/06/02 07:08:32;;;;;;;1.20;0.43;;;32.90;30.00;;;;;;6256016;28;20038;-84
2022/06/02 07:15:09;;;;;;;1.88;0.30;;;33.50;28.40;;;;;;6255258;28;20588;-84
2022/06/02 07:18:21;;;;;;;2.78;0.45;;;32.70;28.70;;;;;;6255459;28;20048;-82
2022/06/02 07:21:29;;;;;;;2.60;0.45;;;32.40;29.10;;;;;;6254406;28;20050;-85
2022/06/02 07:24:41;;;;;;;2.58;0.50;;;32.20;28.90;;;;;;6255619;28;20053;-84
2022/06/02 07:27:50;;;;;;;2.47;0.55;;;32.20;29.20;;;;;;6255153;28;20134;-85
2022/06/02 07:31:05;;;;;;;10.93;0.50;;;32.40;28.70;;;;;;6253589;28;20109;-85
2022/06/02 07:34:25;;;;;;;3.78;0.65;;;32.50;28.40;;;;;;6254884;28;20051;-85
2022/06/02 07:37:37;;;;;;;4.13;0.50;;;32.50;28.90;;;;;;6253479;28;20409;-85
2022/06/02 07:40:57;;;;;;;2.38;0.60;;;33.30;28.50;;;;;;6253086;28;20129;-82
2022/06/02 07:44:34;;;;;;;3.08;0.40;;;33.80;28.70;;;;;;6254759;28;20076;-85
2022/06/02 07:48:00;;;;;;;0.47;0.20;;;34.80;28.00;;;;;;6238697;28;20041;-84
2022/06/02 07:51:11;;;;;;;0.70;0.32;;;34.90;27.00;;;;;;6253705;28;20116;-83
2022/06/02 07:54:38;;;;;;;1.13;0.28;;;34.40;27.60;;;;;;6254403;28;20044;-82
2022/06/02 07:57:48;;;;;;;0.93;0.32;;;34.40;27.50;;;;;;6242289;28;20073;-83
2022/06/02 08:00:58;;;;;;;0.47;0.30;;;34.70;27.30;;;;;;6252600;28;20049;-85
2022/06/02 08:04:13;;;;;;;0.77;0.30;;;34.50;27.10;;;;;;6253036;28;20489;-85
2022/06/02 08:07:25;;;;;;;4.43;0.70;;;34.50;28.00;;;;;;6252581;28;20049;-85
2022/06/02 08:10:40;;;;;;;3.42;0.50;;;34.20;28.10;;;;;;6253553;28;20089;-85
2022/06/02 08:13:49;;;;;;;1.55;0.28;;;34.10;27.90;;;;;;6256100;28;20456;-84
2022/06/02 08:16:59;;;;;;;1.13;0.30;;;33.80;28.50;;;;;;6251859;28;20086;-84
2022/06/02 08:20:26;;;;;;;4.38;0.80;;;34.90;27.70;;;;;;6252947;28;20422;-83
2022/06/02 08:24:15;;;;;;;5.25;0.38;;;34.80;27.10;;;;;;6233990;28;20054;-83
2022/06/02 08:27:38;;;;;;;0.65;0.32;;;34.50;27.50;;;;;;6240924;28;20423;-83
2022/06/02 08:30:46;;;;;;;0.13;0.10;;;35.20;27.60;;;;;;6250182;28;20056;-83
2022/06/02 08:33:55;;;;;;;0.68;0.30;;;35.20;26.60;;;;;;6250865;28;20046;-86
2022/06/02 08:37:20;;;;;;;0.95;0.40;;;34.30;27.40;;;;;;6250050;28;20049;-85
2022/06/02 08:40:52;;;;;;;7.45;0.32;;;34.30;27.80;;;;;;6249173;28;20053;-85
2022/06/02 08:44:27;;;;;;;1.83;0.43;;;33.80;28.00;;;;;;6240057;28;20045;-84
2022/06/02 08:48:17;;;;;;;1.48;0.40;;;33.20;27.80;;;;;;6231580;28;20446;-83
2022/06/02 08:51:50;;;;;;;0.75;0.30;;;32.70;28.30;;;;;;6253369;28;20157;-83
2022/06/02 08:55:36;;;;;;;0.93;0.20;;;33.40;27.90;;;;;;6255655;28;20048;-83
2022/06/02 08:59:17;;;;;;;5.80;0.60;;;34.70;28.10;;;;;;6255521;28;20049;-83
2022/06/02 09:03:03;;;;;;;0.60;0.15;;;35.60;27.00;;;;;;6234936;28;20049;-84
2022/06/02 09:06:41;;;;;;;1.40;0.22;;;35.00;26.60;;;;;;6227737;28;20042;-84
2022/06/02 09:10:17;;;;;;;1.83;0.25;;;34.10;27.50;;;;;;6230970;28;20049;-84
2022/06/02 09:14:04;;;;;;;3.95;0.35;;;34.70;27.70;;;;;;6232055;28;20061;-83
2022/06/02 09:17:23;;;;;;;0.63;0.32;;;35.50;27.20;;;;;;6192054;28;20116;-83
2022/06/02 09:20:41;;;;;;;2.53;0.40;;;34.60;27.00;;;;;;6231587;28;20184;-84
2022/06/02 09:23:48;;;;;;;;;;;34.20;27.50;;;;;;6231196;28;20041;-84
2022/06/02 09:27:48;;;;;;;0.10;0.10;;;34.50;28.00;;;;;;6230674;28;19927;-82
2022/06/02 09:31:09;;;;;;;3.38;0.20;;;35.00;27.20;;;;;;6230005;28;20046;-83
2022/06/02 09:34:42;;;;;;;0.85;0.13;;;34.30;27.50;;;;;;6230895;28;20118;-83
2022/06/02 09:38:09;;;;;;;1.70;0.30;;;33.30;28.10;;;;;;6230634;28;20136;-84
2022/06/02 09:41:26;;;;;;;2.65;0.38;;;32.40;28.60;;;;;;6232177;28;20046;-84
2022/06/02 09:44:36;;;;;;;4.28;0.40;;;32.50;29.00;;;;;;6234704;28;20121;-82
2022/06/02 09:47:52;;;;;;;0.45;0.20;;;32.80;28.80;;;;;;6257088;28;20048;-83
2022/06/02 09:51:19;;;;;;;4.28;0.40;;;32.80;28.90;;;;;;6252849;28;20129;-83
2022/06/02 09:54:42;;;;;;;0.85;0.25;;;33.40;28.70;;;;;;6253440;28;20048;-83
2022/06/02 09:58:06;;;;;;;6.90;0.60;;;33.80;28.20;;;;;;6250593;28;20053;-83
2022/06/02 10:01:29;;;;;;;1.42;0.47;;;33.40;28.40;;;;;;6251465;28;20136;-83
2022/06/02 10:04:56;;;;;;;0.90;0.30;;;32.80;28.60;;;;;;6252641;28;20053;-83
2022/06/02 10:08:06;;;;;;;0.60;0.13;;;32.90;28.70;;;;;;6252011;28;20041;-82
2022/06/02 10:11:20;;;;;;;0.88;0.30;;;33.20;28.20;;;;;;6251829;28;20069;-83
2022/06/02 10:14:52;;;;;;;4.15;1.27;;;31.80;28.50;;;;;;6251463;28;20065;-83
2022/06/02 10:18:12;;;;;;;1.27;0.60;;;30.20;29.70;;;;;;6242904;28;20080;-83
2022/06/02 10:21:33;;;;;;;2.00;0.38;;;29.30;30.90;;;;;;6252253;28;20136;-82
2022/06/02 10:25:10;;;;;;;0.43;0.20;;;28.90;31.20;;;;;;6251291;28;20058;-82
2022/06/02 10:28:49;;;;;;;0.85;0.40;;;28.60;31.20;;;;;;6246941;28;20127;-83
2022/06/02 10:32:23;;;;;;;2.95;0.30;;;28.50;31.00;;;;;;6251762;28;20194;-82
2022/06/02 10:35:55;;;;;;;1.05;0.30;;;28.00;32.30;;;;;;6251459;28;20052;-82
2022/06/02 10:39:18;;;;;;;0.25;0.10;;;27.80;32.80;;;;;;6251415;28;20363;-82
2022/06/02 10:42:35;;;;;;;0.60;0.50;;;28.00;31.90;;;;;;6250870;28;20042;-82
2022/06/02 10:46:06;;;;;;;1.33;0.30;;;27.60;32.40;;;;;;6229913;28;20057;-83
2022/06/02 10:49:15;;;;;;;2.08;0.55;;;27.70;33.10;;;;;;6251450;28;20519;-82
2022/06/02 10:52:46;;;;;;;1.08;0.50;;;27.90;32.30;;;;;;6252559;28;20087;-83
2022/06/02 10:56:22;;;;;;;2.80;0.30;;;28.00;32.80;;;;;;6251198;28;20041;-83
2022/06/02 10:59:56;;;;;;;2.13;0.50;;;28.10;32.80;;;;;;6250843;28;20077;-81
2022/06/02 11:03:58;;;;;;;1.65;0.35;;;28.60;32.20;;;;;;6216260;28;20049;-82
2022/06/02 11:07:36;;;;;;;3.10;0.32;;;29.50;32.20;;;;;;6152620;28;20056;-82
2022/06/02 11:10:57;;;;;;;2.20;0.20;;;30.30;31.00;;;;;;6237984;28;20056;-83
2022/06/02 11:14:41;;;;;;;0.57;0.20;;;29.90;31.60;;;;;;6249523;28;20296;-83
2022/06/02 11:18:23;;;;;;;1.35;0.43;;;29.70;31.00;;;;;;6225517;28;20049;-82
2022/06/02 11:22:01;;;;;;;2.38;0.40;;;28.90;32.50;;;;;;6252055;28;20183;-84
2022/06/02 11:25:21;;;;;;;7.53;0.97;;;28.50;32.60;;;;;;6252703;28;20049;-85
2022/06/02 11:28:51;;;;;;;1.98;0.40;;;28.80;32.50;;;;;;6251541;28;20041;-82
2022/06/02 11:32:21;;;;;;;0.68;0.20;;;28.80;31.80;;;;;;6252016;28;20042;-85
2022/06/02 11:35:56;;;;;;;0.95;0.30;;;28.30;32.80;;;;;;6250451;28;20187;-85
2022/06/02 11:39:34;;;;;;;1.83;0.40;;;28.30;33.10;;;;;;6251307;28;20050;-84
2022/06/02 11:42:57;;;;;;;0.60;0.33;;;28.60;33.40;;;;;;6255597;28;20049;-83
2022/06/02 11:46:51;;;;;;;0.50;0.20;;;28.50;32.50;;;;;;6249719;28;20088;-85
2022/06/02 11:50:33;;;;;;;2.15;0.40;;;28.40;32.50;;;;;;6252597;28;20513;-82
2022/06/02 11:54:19;;;;;;;0.60;0.30;;;28.40;33.00;;;;;;6254266;28;20440;-81
2022/06/02 11:58:15;;;;;;;3.97;0.95;;;28.50;33.30;;;;;;6253804;28;20052;-82
2022/06/02 12:01:41;;;;;;;5.78;0.65;;;28.20;32.80;;;;;;6197076;28;20046;-81
2022/06/02 12:05:12;;;;;;;1.58;0.65;;;28.60;33.20;;;;;;6232301;28;20105;-83
2022/06/02 12:09:06;;;;;;;2.85;0.40;;;28.10;33.40;;;;;;6231271;28;20049;-84
2022/06/02 12:12:24;;;;;;;0.40;0.38;;;27.60;33.80;;;;;;6231398;28;20049;-80
2022/06/02 12:15:55;;;;;;;1.92;0.22;;;27.40;34.50;;;;;;6236255;28;20132;-82
2022/06/02 12:19:17;;;;;;;1.75;0.38;;;27.00;35.00;;;;;;6256072;28;20490;-81
2022/06/02 12:22:45;;;;;;;4.10;0.50;;;26.60;35.10;;;;;;6235229;28;20042;-82
2022/06/02 12:25:57;;;;;;;;;;;26.40;35.60;;;;;;6236676;28;20092;-83
2022/06/02 12:29:08;;;;;;;0.60;0.25;;;26.50;35.80;;;;;;6236558;28;19921;-82
2022/06/02 12:32:45;;;;;;;1.25;0.73;;;26.60;35.90;;;;;;6243668;28;20056;-84
2022/06/02 12:36:04;;;;;;;0.50;0.15;;;26.60;35.90;;;;;;6258503;28;20055;-81
2022/06/02 12:39:33;;;;;;;5.05;0.52;;;26.50;35.90;;;;;;6260221;28;20048;-84
2022/06/02 12:43:35;;;;;;;0.80;0.40;;;26.70;36.40;;;;;;6259524;28;20099;-82
2022/06/02 12:46:59;;;;;;;1.65;0.88;;;26.70;36.10;;;;;;6182212;28;20057;-82
2022/06/02 12:50:27;;;;;;;1.95;0.43;;;26.50;36.00;;;;;;6194339;28;20511;-85
2022/06/02 12:53:58;;;;;;;1.92;0.30;;;26.60;36.30;;;;;;6257155;28;20053;-83
2022/06/02 12:57:28;;;;;;;0.90;0.40;;;26.60;36.70;;;;;;6258627;28;20125;-85
2022/06/02 13:00:55;;;;;;;2.83;0.30;;;26.80;36.20;;;;;;6238684;28;20132;-83
2022/06/02 13:04:35;;;;;;;1.08;0.38;;;26.80;36.70;;;;;;6247003;28;20077;-86
2022/06/02 13:08:25;;;;;;;0.93;0.35;;;27.30;35.80;;;;;;6257649;28;20616;-87
2022/06/02 13:11:57;;;;;;;0.22;0.20;;;27.50;36.10;;;;;;6151217;28;20097;-87
2022/06/02 13:16:05;;;;;;;0.65;0.32;;;27.90;35.50;;;;;;6250593;28;20053;-86
2022/06/02 13:19:38;;;;;;;1.73;0.30;;;28.00;34.30;;;;;;6162682;28;20139;-85
2022/06/02 13:23:28;;;;;;;4.80;0.30;;;27.80;34.50;;;;;;6185053;28;20049;-85
2022/06/02 13:26:56;;;;;;;3.00;0.30;;;27.40;34.70;;;;;;6187209;28;20060;-81
2022/06/02 13:30:26;;;;;;;0.30;0.20;;;27.40;35.30;;;;;;6246493;28;20719;-87
2022/06/02 13:34:13;;;;;;;3.42;0.30;;;27.10;35.70;;;;;;6246632;28;20050;-86
2022/06/02 13:37:56;;;;;;;1.65;0.38;;;27.10;36.30;;;;;;6237970;28;20054;-85
2022/06/02 13:41:31;;;;;;;1.30;0.30;;;27.40;35.60;;;;;;6233593;28;20076;-85
2022/06/02 13:45:23;;;;;;;1.58;0.20;;;27.40;35.70;;;;;;6251935;28;20061;-83
2022/06/02 13:49:14;;;;;;;1.52;0.50;;;27.60;35.80;;;;;;6228077;28;20046;-84
2022/06/02 13:52:48;;;;;;;0.63;0.32;;;27.70;35.60;;;;;;6227350;28;20501;-83
2022/06/02 14:00:08;;;;;;;0.65;0.40;;;27.80;35.20;;;;;;6217056;28;20060;-84
2022/06/02 14:03:59;;;;;;;1.60;0.50;;;28.00;35.90;;;;;;6249168;28;20042;-85
2022/06/02 14:07:14;;;;;;;0.85;0.22;;;28.00;35.50;;;;;;6150368;29;20289;-83
2022/06/02 14:10:36;;;;;;;2.15;0.22;;;28.00;36.00;;;;;;6157897;28;20130;-83
2022/06/02 14:14:04;;;;;;;5.43;0.40;;;28.10;35.20;;;;;;6225730;28;20060;-85
2022/06/02 14:17:16;;;;;;;3.47;0.47;;;27.90;35.10;;;;;;6234627;28;20484;-82
2022/06/02 14:20:24;;;;;;;0.68;0.30;;;27.60;35.70;;;;;;6249901;28;20179;-86
2022/06/02 14:23:39;;;;;;;1.90;0.20;;;27.60;36.10;;;;;;6250757;28;20041;-84
2022/06/02 14:26:55;;;;;;;5.20;0.40;;;27.60;36.10;;;;;;6251501;28;20499;-84
2022/06/02 14:30:07;;;;;;;3.13;0.38;;;27.60;36.40;;;;;;6251509;28;20120;-83
2022/06/02 14:33:16;;;;;;;3.05;0.45;;;27.40;36.70;;;;;;6250902;28;20496;-86
2022/06/02 14:36:29;;;;;;;4.43;0.55;;;27.40;36.30;;;;;;6251668;28;20251;-84
2022/06/02 14:39:41;;;;;;;1.23;0.20;;;27.60;36.80;;;;;;6242915;28;20056;-86
2022/06/02 14:43:20;;;;;;;3.28;0.65;;;27.80;36.40;;;;;;6259284;28;20056;-86
2022/06/02 14:51:13;;;;;;;2.67;0.20;;;27.70;36.70;;;;;;6239937;28;20061;-85
2022/06/02 14:55:11;;;;;;;3.83;0.50;;;28.00;36.40;;;;;;6257904;28;20136;-87
2022/06/02 14:58:27;;;;;;;1.05;0.32;;;28.00;36.20;;;;;;6267477;23;20038;-85
2022/06/02 15:01:38;;;;;;;1.13;0.28;;;27.60;36.60;;;;;;6226901;28;20054;-84
2022/06/02 15:05:02;;;;;;;6.32;1.17;;;27.60;36.50;;;;;;6206854;28;20066;-84
2022/06/02 15:08:25;;;;;;;2.72;0.40;;;27.30;37.00;;;;;;6224845;28;20107;-84
2022/06/02 15:11:59;;;;;;;1.23;0.50;;;27.10;37.30;;;;;;6225936;28;20394;-84
2022/06/02 15:15:27;;;;;;;1.55;0.50;;;26.90;37.60;;;;;;6224828;28;20135;-84
2022/06/02 15:19:04;;;;;;;2.20;0.32;;;26.60;37.80;;;;;;6219936;28;20069;-84
2022/06/02 15:22:38;;;;;;;3.90;0.57;;;26.60;38.60;;;;;;6224661;28;20046;-85
2022/06/02 15:25:50;;;;;;;2.20;0.20;;;26.70;38.60;;;;;;6204980;28;20049;-84
2022/06/02 15:29:37;;;;;;;0.85;0.35;;;26.80;38.70;;;;;;6223883;28;20042;-85
2022/06/02 15:33:21;;;;;;;1.20;0.32;;;26.90;39.50;;;;;;6221134;28;20062;-84
2022/06/02 15:36:41;;;;;;;5.00;0.50;;;26.90;38.00;;;;;;6225320;28;20513;-84
2022/06/02 15:40:10;;;;;;;2.03;0.40;;;26.70;38.70;;;;;;6226220;28;20057;-85
2022/06/02 15:43:44;;;;;;;2.45;0.60;;;26.80;38.10;;;;;;6224962;28;20497;-84
2022/06/02 15:47:23;;;;;;;1.42;0.65;;;27.00;38.30;;;;;;6222463;28;20181;-84
2022/06/02 15:51:03;;;;;;;0.73;0.40;;;27.30;38.00;;;;;;6201654;28;20506;-84
2022/06/02 15:54:39;;;;;;;2.80;0.40;;;27.30;38.10;;;;;;6162787;28;20130;-84
2022/06/02 15:58:21;;;;;;;0.80;0.40;;;27.60;37.90;;;;;;6205904;28;20054;-83
2022/06/02 16:01:44;;;;;;;2.92;0.30;;;27.40;38.20;;;;;;6205540;28;20065;-82
2022/06/02 16:05:26;;;;;;;2.35;0.43;;;27.30;37.80;;;;;;6203496;28;20046;-83
2022/06/02 16:13:02;;;;;;;2.25;0.63;;;27.00;38.40;;;;;;6228852;28;20042;-81
2022/06/02 16:17:05;;;;;;;2.25;0.40;;;26.90;39.30;;;;;;6235044;28;20052;-82
2022/06/02 16:20:38;;;;;;;2.03;0.45;;;27.00;39.10;;;;;;6192575;28;20110;-81
2022/06/02 16:24:07;;;;;;;2.35;0.30;;;26.80;39.10;;;;;;6238030;28;20094;-82
2022/06/02 16:27:49;;;;;;;1.67;0.50;;;26.90;39.00;;;;;;6227320;28;20060;-81
2022/06/02 16:31:12;;;;;;;1.85;0.63;;;26.90;39.40;;;;;;6228217;28;20042;-81
2022/06/02 16:34:26;;;;;;;1.25;0.43;;;27.00;39.30;;;;;;6198925;28;20056;-81
2022/06/02 16:37:39;;;;;;;1.75;0.60;;;26.90;39.00;;;;;;6214688;28;20054;-81
2022/06/02 16:40:59;;;;;;;3.40;0.38;;;26.90;39.30;;;;;;6225300;28;20076;-81
2022/06/02 16:44:30;;;;;;;0.98;0.38;;;26.60;39.70;;;;;;6226977;28;20061;-81
2022/06/02 16:48:05;;;;;;;1.60;0.57;;;26.40;40.00;;;;;;6226977;28;20104;-81
2022/06/02 16:51:30;;;;;;;3.92;0.70;;;26.30;40.40;;;;;;6237621;28;20128;-81
2022/06/02 16:55:16;;;;;;;3.40;0.88;;;26.30;40.70;;;;;;6246836;28;20048;-81
2022/06/02 16:58:49;;;;;;;4.10;0.73;;;26.20;40.60;;;;;;6244981;28;20050;-80
2022/06/02 17:02:03;;;;;;;5.45;0.60;;;26.10;40.80;;;;;;6246431;28;20125;-81
2022/06/02 17:05:25;;;;;;;4.70;0.70;;;26.00;41.00;;;;;;6247076;28;20428;-80
2022/06/02 17:08:41;;;;;;;1.48;0.63;;;26.00;41.30;;;;;;6223625;28;20075;-80
2022/06/02 17:11:49;;;;;;;1.10;0.47;;;25.90;41.40;;;;;;6225574;28;20054;-81
2022/06/02 17:15:01;;;;;;;2.72;0.47;;;25.70;42.00;;;;;;6226445;28;20049;-80
2022/06/02 17:18:19;;;;;;;1.17;0.50;;;25.60;41.90;;;;;;6225745;28;20054;-81
2022/06/02 17:21:34;;;;;;;2.67;0.55;;;25.60;42.10;;;;;;6228745;28;20073;-81
2022/06/02 17:24:53;;;;;;;1.92;0.50;;;25.50;42.10;;;;;;6227517;28;20125;-81
2022/06/02 17:28:06;;;;;;;1.10;0.45;;;25.30;42.50;;;;;;6231638;28;20113;-81
2022/06/02 17:31:25;;;;;;;1.00;0.50;;;25.10;43.20;;;;;;6230879;28;20058;-81
2022/06/02 17:34:44;;;;;;;1.52;0.88;;;24.90;43.50;;;;;;6215496;28;20054;-82
2022/06/02 17:38:21;;;;;;;5.18;0.35;;;24.80;44.10;;;;;;6237785;28;20057;-80
2022/06/02 17:41:59;;;;;;;1.20;0.43;;;24.60;45.20;;;;;;6226775;28;20100;-82
2022/06/02 17:45:27;;;;;;;1.52;0.68;;;24.50;45.00;;;;;;6227926;28;20046;-81
2022/06/02 17:48:47;;;;;;;4.15;0.65;;;24.40;45.40;;;;;;6204380;28;20049;-80
2022/06/02 17:52:01;;;;;;;4.53;0.70;;;24.30;45.60;;;;;;6239568;28;20066;-81
2022/06/02 17:55:42;;;;;;;1.60;0.50;;;24.30;45.90;;;;;;6228173;28;20492;-81